Terminal Aerodrome Forecast
Issued by NWS

Home | Current Version | Previous Version | Text Only | Print | Product List | Glossary On
Versions: 1 2 3 4 5 6 7 8 9 10 11 12 13 14 15 16 17
345
FTUS42 TJSJ 090536
TAFJSJ
TAF
TJSJ 090536Z 0906/1006 VRB05KT P6SM SCT025
     FM091300 15010KT P6SM FEW030 SCT050
     FM092300 VRB05KT P6SM VCSH SCT025 SCT040=

USA.gov is the U.S. government's official web portal to all federal, state and local government web resources and services.